aviador You're here:

CYSC Decoded Metar

SHERBROOKE in QC, CANADA
Report Time2017-12-15 13:39:00
UTC Time2017-12-15 14:10:13
Flight Rules vfr VFR
Wind080° at 03 kt
W.Decomp.*RWY 14: 2.2 kt HW 2 kt LCW
W.Rank080° ranks 6
Current wind is below 080° avg. (4.0)
Visibility9999 m
Phenomena:Light Snow
Clouds:Few 240 Hf
Expected CloudBase > 1,200 ft AGL from Temp-Dew spread
CeilingNone
Temp-20°C (ISA -33)
Dew Point-23°C (77% RH)
AAT-24.8°C
QNH1015 hPa
Density Alt-3,533 ft
Elevation791 ft
Report Wrong Elevation
Raw Report
SPECI CYSC 151339Z AUTO 08003KT 9SM -SN FEW240 M20/M23 A2997 RMK SLP175=

Extra information for CYSC:More info

Metar Taf Metar & Taf Last 4 Metars F.Rules Stats Wind Profile Meteogram Temp Stats Airport Information Weather charts Add Link Nearby VenuesMetar ALERT Operation Metar Decoded Social comments